Time;durP1;ratioP1;P1;durP2;ratioP2;P2;SDS_P1;SDS_P2;PMS_P1;PMS_P2;Temp;Humidity;BMP_temperature;BMP_pressure;BME280_temperature;BME280_humidity;BME280_pressure;Samples;Min_cycle;Max_cycle;Signal;HPM_P1;HPM_P2
2020/12/07 00:00:08;;;;;;;;;;;;;;;7.88;77.44;98346.22;5058415;28;19928;-70
2020/12/07 00:02:34;;;;;;;;;;;;;;;7.85;77.63;98360.25;5058638;28;19928;-69
2020/12/07 00:05:02;;;;;;;;;;;;;;;8.00;76.96;98341.50;5071002;28;19929;-69
2020/12/07 00:07:28;;;;;;;;;;;;;;;8.04;76.69;98348.09;5049359;28;20356;-69
2020/12/07 00:09:56;;;;;;;;;;;;;;;8.04;76.63;98339.97;5074051;28;19940;-70
2020/12/07 00:12:26;;;;;;;;;;;;;;;8.12;76.49;98336.03;5069883;28;19924;-69
2020/12/07 00:14:52;;;;;;;;;;;;;;;8.05;76.66;98336.19;5063049;28;19925;-69
2020/12/07 00:17:19;;;;;;;;;;;;;;;8.16;76.12;98330.94;5059796;28;19925;-69
2020/12/07 00:19:45;;;;;;;;;;;;;;;8.10;76.47;98337.34;5071923;28;20041;-70
2020/12/07 00:22:11;;;;;;;;;;;;;;;8.11;76.36;98338.97;5056417;28;20023;-70
2020/12/07 00:24:38;;;;;;;;;;;;;;;8.15;76.35;98342.84;5062594;28;19934;-69
2020/12/07 00:27:18;;;;;;;;;;;;;;;8.15;76.25;98332.00;5073681;28;19984;-69
2020/12/07 00:29:45;;;;;;;;;;;;;;;8.16;76.14;98347.22;5066451;28;19928;-69
2020/12/07 00:32:12;;;;;;;;;;;;;;;8.17;76.17;98360.53;5044851;28;19925;-69
2020/12/07 00:34:38;;;;;;;;;;;;;;;8.25;75.72;98357.41;5036161;28;20478;-69
2020/12/07 00:37:06;;;;;;;;;;;;;;;8.21;75.95;98341.88;5029881;28;20031;-69
2020/12/07 00:39:32;;;;;;;;;;;;;;;8.11;76.15;98338.97;5056262;28;19925;-69
2020/12/07 00:41:59;;;;;;;;;;;;;;;8.08;76.23;98324.84;5050160;28;19925;-69
2020/12/07 00:44:25;;;;;;;;;;;;;;;8.10;76.09;98338.16;5043812;28;19931;-69
2020/12/07 00:46:51;;;;;;;;;;;;;;;8.10;76.28;98342.75;5031158;28;19935;-69
2020/12/07 00:49:18;;;;;;;;;;;;;;;8.08;76.07;98343.84;5051102;28;19931;-69
2020/12/07 00:51:44;;;;;;;;;;;;;;;8.18;75.71;98345.91;5048027;28;19925;-69
2020/12/07 00:54:10;;;;;;;;;;;;;;;8.14;75.90;98339.31;5060669;28;19988;-70
2020/12/07 00:56:37;;;;;;;;;;;;;;;8.11;76.03;98330.84;5040737;28;19941;-69
2020/12/07 00:59:03;;;;;;;;;;;;;;;8.08;76.00;98324.84;5037381;28;19924;-69
2020/12/07 01:01:30;;;;;;;;;;;;;;;8.02;76.21;98319.56;5037693;28;19929;-70
2020/12/07 01:03:56;;;;;;;;;;;;;;;8.04;76.25;98317.44;5053031;28;19963;-70
2020/12/07 01:06:29;;;;;;;;;;;;;;;7.91;76.87;98324.03;5070678;28;20310;-70
2020/12/07 01:08:58;;;;;;;;;;;;;;;7.96;76.60;98332.25;5036019;28;19931;-70
2020/12/07 01:11:25;;;;;;;;;;;;;;;7.95;76.67;98329.78;5052188;28;19924;-69
2020/12/07 01:13:51;;;;;;;;;;;;;;;7.98;76.54;98323.84;5049561;28;19924;-70
2020/12/07 01:16:19;;;;;;;;;;;;;;;7.84;77.36;98322.53;5036694;28;20556;-70
2020/12/07 01:18:45;;;;;;;;;;;;;;;7.90;76.90;98337.84;5022762;28;19991;-69
2020/12/07 01:21:12;;;;;;;;;;;;;;;7.94;76.73;98336.28;5037260;28;20586;-70
2020/12/07 01:23:40;;;;;;;;;;;;;;;7.97;76.62;98336.59;5042924;28;19925;-69
2020/12/07 01:26:10;;;;;;;;;;;;;;;8.04;76.31;98334.53;5054506;28;19925;-70
2020/12/07 01:28:37;;;;;;;;;;;;;;;8.08;76.27;98337.59;5053476;28;19928;-70
2020/12/07 01:31:07;;;;;;;;;;;;;;;8.07;76.09;98334.06;5051993;28;20404;-70
2020/12/07 01:33:33;;;;;;;;;;;;;;;8.10;76.17;98313.75;5059738;28;19993;-69
2020/12/07 01:36:00;;;;;;;;;;;;;;;7.99;76.41;98312.75;5056211;28;19960;-70
2020/12/07 01:38:26;;;;;;;;;;;;;;;8.01;76.40;98318.75;5062783;28;19931;-69
2020/12/07 01:40:54;;;;;;;;;;;;;;;8.11;76.02;98314.56;5061807;28;19925;-70
2020/12/07 01:43:21;;;;;;;;;;;;;;;8.13;75.96;98315.97;5036626;28;20417;-69
2020/12/07 01:45:52;;;;;;;;;;;;;;;8.02;76.35;98303.31;5057558;28;20024;-70
2020/12/07 01:48:20;;;;;;;;;;;;;;;7.98;76.62;98305.69;5036611;28;19925;-69
2020/12/07 01:50:46;;;;;;;;;;;;;;;8.03;76.51;98305.78;5056062;28;20019;-70
2020/12/07 01:53:13;;;;;;;;;;;;;;;8.07;76.16;98303.38;5055530;28;20451;-70
2020/12/07 01:55:39;;;;;;;;;;;;;;;8.23;75.60;98307.19;5036344;28;20008;-70
2020/12/07 01:58:05;;;;;;;;;;;;;;;8.34;75.01;98317.94;5065357;28;19924;-69
2020/12/07 02:00:32;;;;;;;;;;;;;;;8.33;74.90;98315.47;5055618;28;19925;-70
2020/12/07 02:03:04;;;;;;;;;;;;;;;8.40;74.62;98310.72;5072200;28;19997;-70
2020/12/07 02:05:31;;;;;;;;;;;;;;;8.36;74.93;98304.13;5071903;28;19970;-71
2020/12/07 02:08:32;;;;;;;;;;;;;;;8.37;74.84;98295.75;5055710;28;20302;-70
2020/12/07 02:11:06;;;;;;;;;;;;;;;8.38;74.86;98291.13;5049759;28;20308;-69
2020/12/07 02:13:36;;;;;;;;;;;;;;;8.42;74.46;98302.31;5055502;28;19935;-69
2020/12/07 02:16:02;;;;;;;;;;;;;;;8.43;74.56;98293.09;5053957;28;19924;-70
2020/12/07 02:18:37;;;;;;;;;;;;;;;8.45;74.27;98299.09;5049769;28;19974;-70
2020/12/07 02:21:04;;;;;;;;;;;;;;;8.43;74.56;98303.97;5045131;28;19928;-70
2020/12/07 02:23:53;;;;;;;;;;;;;;;8.35;74.67;98307.91;5048930;28;20302;-70
2020/12/07 02:26:23;;;;;;;;;;;;;;;8.46;74.12;98298.88;5070430;28;20443;-69
2020/12/07 02:28:51;;;;;;;;;;;;;;;8.33;74.51;98301.91;5070564;28;19925;-70
2020/12/07 02:31:24;;;;;;;;;;;;;;;8.40;74.44;98310.72;5040698;28;20027;-70
2020/12/07 02:33:50;;;;;;;;;;;;;;;8.43;74.21;98310.22;5038831;28;19925;-70
2020/12/07 02:36:16;;;;;;;;;;;;;;;8.51;74.00;98296.22;5054389;28;19933;-70
2020/12/07 02:38:54;;;;;;;;;;;;;;;8.50;73.82;98300.00;5052186;28;19955;-69
2020/12/07 02:41:25;;;;;;;;;;;;;;;8.50;73.79;98299.19;5037184;28;20305;-71
2020/12/07 02:43:51;;;;;;;;;;;;;;;8.54;73.79;98297.63;5051264;28;20306;-69
2020/12/07 02:46:18;;;;;;;;;;;;;;;8.55;73.55;98302.81;5037335;28;19932;-70
2020/12/07 02:48:45;;;;;;;;;;;;;;;8.57;73.34;98310.69;5055125;28;19925;-70
2020/12/07 02:51:13;;;;;;;;;;;;;;;8.55;73.46;98291.94;5051544;28;19925;-70
2020/12/07 02:53:40;;;;;;;;;;;;;;;8.55;73.50;98300.09;5052300;28;19931;-70
2020/12/07 02:56:09;;;;;;;;;;;;;;;8.58;72.95;98283.31;5034524;28;20012;-70
2020/12/07 02:58:44;;;;;;;;;;;;;;;8.57;73.30;98297.94;5036141;28;19964;-70
2020/12/07 03:01:11;;;;;;;;;;;;;;;8.65;72.82;98307.56;5038871;28;19924;-70
2020/12/07 03:03:37;;;;;;;;;;;;;;;8.70;72.63;98286.69;5054231;28;20398;-70
2020/12/07 03:06:03;;;;;;;;;;;;;;;8.70;72.29;98283.97;5018695;28;20011;-70
2020/12/07 03:08:31;;;;;;;;;;;;;;;8.66;72.47;98288.28;5051027;28;19932;-70
2020/12/07 03:10:57;;;;;;;;;;;;;;;8.65;72.64;98305.66;5071597;28;19928;-69
2020/12/07 03:13:27;;;;;;;;;;;;;;;8.64;72.72;98293.16;5071760;28;20038;-70
2020/12/07 03:15:59;;;;;;;;;;;;;;;8.71;72.37;98280.19;5023872;28;19946;-70
2020/12/07 03:18:28;;;;;;;;;;;;;;;8.73;72.08;98271.81;5091997;23;19947;-70
2020/12/07 03:20:59;;;;;;;;;;;;;;;8.77;71.94;98272.94;5092558;28;20450;-69
2020/12/07 03:23:26;;;;;;;;;;;;;;;8.70;72.24;98270.41;5076034;28;19924;-70
2020/12/07 03:25:55;;;;;;;;;;;;;;;8.67;72.42;98283.66;5084769;28;20394;-71
2020/12/07 03:28:24;;;;;;;;;;;;;;;8.60;72.59;98289.31;5058279;28;19931;-70
2020/12/07 03:30:50;;;;;;;;;;;;;;;8.58;72.72;98286.00;5071030;28;19932;-70
2020/12/07 03:33:17;;;;;;;;;;;;;;;8.69;72.12;98274.19;5057800;28;20364;-70
2020/12/07 03:35:43;;;;;;;;;;;;;;;8.74;72.12;98273.44;5071516;28;20298;-70
2020/12/07 03:38:11;;;;;;;;;;;;;;;8.79;71.63;98278.13;5073676;28;20306;-70
2020/12/07 03:40:38;;;;;;;;;;;;;;;8.83;71.42;98287.41;5075528;28;20299;-70
2020/12/07 03:43:09;;;;;;;;;;;;;;;8.80;71.85;98296.06;5082802;28;19927;-70
2020/12/07 03:45:38;;;;;;;;;;;;;;;8.82;71.68;98302.88;5055568;28;19925;-70
2020/12/07 03:48:05;;;;;;;;;;;;;;;8.86;71.27;98305.94;5067562;28;20007;-70
2020/12/07 03:50:32;;;;;;;;;;;;;;;8.89;71.34;98308.16;5075852;28;19966;-70
2020/12/07 03:52:58;;;;;;;;;;;;;;;8.86;71.45;98298.59;5075804;28;20283;-70
2020/12/07 03:55:26;;;;;;;;;;;;;;;8.89;71.06;98294.56;5058327;28;19989;-70
2020/12/07 03:57:57;;;;;;;;;;;;;;;8.95;71.06;98279.97;5055698;28;19928;-70
2020/12/07 04:00:23;;;;;;;;;;;;;;;8.98;70.71;98274.84;5053949;28;19932;-70
2020/12/07 04:02:59;;;;;;;;;;;;;;;9.06;70.50;98277.09;5056863;28;20071;-70
2020/12/07 04:05:38;;;;;;;;;;;;;;;9.11;70.09;98278.25;5070856;28;19936;-70
2020/12/07 04:08:08;;;;;;;;;;;;;;;9.15;70.22;98279.38;5078739;28;20195;-72
2020/12/07 04:10:38;;;;;;;;;;;;;;;9.17;70.02;98279.94;5089224;28;20310;-70
2020/12/07 04:13:05;;;;;;;;;;;;;;;9.17;69.86;98286.19;5075718;28;19924;-70
2020/12/07 04:15:31;;;;;;;;;;;;;;;9.17;70.04;98278.06;5075726;28;20014;-70
2020/12/07 04:17:58;;;;;;;;;;;;;;;9.14;70.24;98285.88;5092786;28;19925;-70
2020/12/07 04:20:24;;;;;;;;;;;;;;;9.14;70.22;98286.72;5091973;28;20023;-70
2020/12/07 04:22:50;;;;;;;;;;;;;;;9.11;70.12;98292.66;5058799;28;20382;-70
2020/12/07 04:25:16;;;;;;;;;;;;;;;9.14;70.05;98291.31;5074865;28;20282;-70
2020/12/07 04:27:43;;;;;;;;;;;;;;;9.12;70.44;98286.13;5091931;28;20014;-70
2020/12/07 04:30:09;;;;;;;;;;;;;;;9.19;70.17;98296.81;5091065;28;19963;-70
2020/12/07 04:32:35;;;;;;;;;;;;;;;9.21;70.11;98300.94;5075785;28;20320;-70
2020/12/07 04:35:02;;;;;;;;;;;;;;;9.17;70.17;98304.41;5091481;28;19924;-70
2020/12/07 04:37:28;;;;;;;;;;;;;;;9.12;70.36;98285.31;5075205;28;20006;-70
2020/12/07 04:39:55;;;;;;;;;;;;;;;9.15;70.31;98293.78;5091347;28;20321;-70
2020/12/07 04:42:21;;;;;;;;;;;;;;;9.20;69.94;98277.53;5092092;28;20100;-70
2020/12/07 04:44:48;;;;;;;;;;;;;;;9.20;69.91;98284.88;5074708;28;20431;-70
2020/12/07 04:47:17;;;;;;;;;;;;;;;9.19;69.83;98281.34;5060852;28;19928;-70
2020/12/07 04:49:44;;;;;;;;;;;;;;;9.19;70.09;98286.78;5054828;28;20034;-70
2020/12/07 04:52:10;;;;;;;;;;;;;;;9.15;70.29;98284.81;5082888;28;19963;-69
2020/12/07 04:54:36;;;;;;;;;;;;;;;9.11;70.42;98287.22;5075831;28;19932;-70
2020/12/07 04:57:03;;;;;;;;;;;;;;;9.13;70.34;98282.34;5091298;28;19928;-70
2020/12/07 04:59:29;;;;;;;;;;;;;;;9.13;70.53;98292.41;5074747;28;19924;-70
2020/12/07 05:01:55;;;;;;;;;;;;;;;9.13;70.18;98287.78;5089322;28;20284;-70
2020/12/07 05:04:22;;;;;;;;;;;;;;;9.03;70.60;98288.47;5091565;28;19931;-70
2020/12/07 05:06:59;;;;;;;;;;;;;;;9.04;70.78;98289.28;5090933;28;19924;-70
2020/12/07 05:09:26;;;;;;;;;;;;;;;9.07;70.59;98289.63;5090997;28;19927;-70
2020/12/07 05:11:53;;;;;;;;;;;;;;;9.02;71.04;98286.00;5090968;28;19931;-70
2020/12/07 05:14:20;;;;;;;;;;;;;;;8.98;70.98;98296.59;5091378;28;19927;-70
2020/12/07 05:16:47;;;;;;;;;;;;;;;8.95;71.21;98294.38;5083463;28;19977;-70
2020/12/07 05:19:14;;;;;;;;;;;;;;;8.96;71.17;98301.44;5090526;28;20401;-70
2020/12/07 05:21:40;;;;;;;;;;;;;;;8.98;71.06;98325.66;5057740;28;19951;-70
2020/12/07 05:24:06;;;;;;;;;;;;;;;9.02;70.81;98318.63;5090699;28;19931;-70
2020/12/07 05:26:35;;;;;;;;;;;;;;;9.02;70.99;98322.16;5090917;28;19924;-70
2020/12/07 05:29:08;;;;;;;;;;;;;;;9.03;70.91;98320.25;5053652;28;19995;-70
2020/12/07 05:31:34;;;;;;;;;;;;;;;8.99;71.30;98319.16;5076587;28;19928;-70
2020/12/07 05:34:01;;;;;;;;;;;;;;;8.98;71.38;98329.19;5074078;28;19950;-70
2020/12/07 05:36:27;;;;;;;;;;;;;;;9.01;70.91;98323.22;5075502;28;19924;-70
2020/12/07 05:38:53;;;;;;;;;;;;;;;8.97;71.33;98319.41;5098542;28;19927;-70
2020/12/07 05:41:23;;;;;;;;;;;;;;;8.97;71.27;98307.72;5097392;28;20011;-70
2020/12/07 05:43:52;;;;;;;;;;;;;;;8.98;71.40;98322.94;5091743;28;19959;-70
2020/12/07 05:46:24;;;;;;;;;;;;;;;8.95;71.39;98329.69;5080399;28;20547;-70
2020/12/07 05:48:51;;;;;;;;;;;;;;;8.91;71.74;98338.59;5090031;28;20219;-70
2020/12/07 05:51:17;;;;;;;;;;;;;;;8.89;71.94;98346.16;5073603;28;19928;-70
2020/12/07 05:53:43;;;;;;;;;;;;;;;8.92;71.65;98342.94;5070612;28;20364;-70
2020/12/07 05:56:10;;;;;;;;;;;;;;;8.89;71.92;98351.59;5090357;28;19969;-70
2020/12/07 05:58:55;;;;;;;;;;;;;;;8.84;72.24;98359.69;5090016;28;20381;-70
2020/12/07 06:01:23;;;;;;;;;;;;;;;8.83;72.18;98366.19;5089763;28;19985;-70
2020/12/07 06:03:51;;;;;;;;;;;;;;;8.82;72.44;98362.63;5072892;28;19935;-70
2020/12/07 06:06:17;;;;;;;;;;;;;;;8.91;71.98;98374.72;5090490;28;19930;-70
2020/12/07 06:08:44;;;;;;;;;;;;;;;8.94;71.95;98373.41;5073111;28;19924;-70
2020/12/07 06:11:10;;;;;;;;;;;;;;;8.92;71.81;98381.81;5073410;28;19931;-70
2020/12/07 06:13:36;;;;;;;;;;;;;;;8.91;71.70;98382.06;5090242;28;19977;-70
2020/12/07 06:16:04;;;;;;;;;;;;;;;8.91;71.72;98392.91;5082930;28;19925;-70
2020/12/07 06:18:31;;;;;;;;;;;;;;;8.97;71.70;98387.31;5087879;28;19930;-70
2020/12/07 06:21:00;;;;;;;;;;;;;;;8.94;71.75;98397.84;5082387;28;19924;-70
2020/12/07 06:23:46;;;;;;;;;;;;;;;8.97;71.59;98410.94;5093235;28;19955;-70
2020/12/07 06:26:14;;;;;;;;;;;;;;;8.79;70.65;98422.06;5089442;28;19928;-70
2020/12/07 06:28:41;;;;;;;;;;;;;;;8.38;70.95;98434.97;5089837;28;19928;-70
2020/12/07 06:31:12;;;;;;;;;;;;;;;8.01;71.58;98446.25;5053106;28;20474;-70
2020/12/07 06:33:51;;;;;;;;;;;;;;;7.82;71.85;98450.22;5064825;28;20305;-70
2020/12/07 06:36:25;;;;;;;;;;;;;;;7.67;72.32;98448.03;5069456;28;19924;-70
2020/12/07 06:38:59;;;;;;;;;;;;;;;7.57;72.63;98455.16;5081354;28;19935;-70
2020/12/07 06:41:30;;;;;;;;;;;;;;;7.47;72.97;98453.03;5069304;28;20289;-70
2020/12/07 06:43:58;;;;;;;;;;;;;;;7.47;72.68;98457.63;5045002;28;19929;-70
2020/12/07 06:46:43;;;;;;;;;;;;;;;7.50;72.69;98463.41;5087851;28;20409;-70
2020/12/07 06:49:09;;;;;;;;;;;;;;;7.51;72.68;98475.06;5073272;28;19925;-70
2020/12/07 06:51:38;;;;;;;;;;;;;;;7.48;72.77;98481.78;5073493;28;19935;-70
2020/12/07 06:54:13;;;;;;;;;;;;;;;7.52;72.64;98485.69;5075837;28;19924;-70
2020/12/07 06:56:40;;;;;;;;;;;;;;;7.55;72.69;98497.94;5072988;28;20007;-70
2020/12/07 06:59:07;;;;;;;;;;;;;;;7.57;72.68;98502.06;5096370;28;19960;-70
2020/12/07 07:01:33;;;;;;;;;;;;;;;7.56;72.69;98502.28;5095774;28;19961;-70
2020/12/07 07:04:00;;;;;;;;;;;;;;;7.54;72.56;98501.69;5102086;28;19955;-70
2020/12/07 07:06:26;;;;;;;;;;;;;;;7.57;72.67;98503.94;5102719;28;19934;-70
2020/12/07 07:08:54;;;;;;;;;;;;;;;7.60;72.26;98511.59;5094089;28;20302;-70
2020/12/07 07:11:20;;;;;;;;;;;;;;;7.52;72.64;98520.09;5086502;28;19973;-70
2020/12/07 07:13:47;;;;;;;;;;;;;;;7.44;72.74;98512.31;5067935;28;19928;-70
2020/12/07 07:16:13;;;;;;;;;;;;;;;7.34;72.98;98511.03;5080426;28;19986;-70
2020/12/07 07:18:40;;;;;;;;;;;;;;;7.32;73.09;98515.84;5090908;28;19931;-70
2020/12/07 07:21:07;;;;;;;;;;;;;;;7.26;73.77;98521.41;5074357;28;19977;-70
2020/12/07 07:23:36;;;;;;;;;;;;;;;7.23;73.42;98538.13;5074904;28;19928;-69
2020/12/07 07:26:23;;;;;;;;;;;;;;;7.17;73.71;98545.31;5069199;28;20023;-70
2020/12/07 07:28:51;;;;;;;;;;;;;;;7.11;73.70;98548.97;5070871;28;19963;-70
2020/12/07 07:31:17;;;;;;;;;;;;;;;7.12;74.22;98553.31;5064567;28;19987;-70
2020/12/07 07:33:44;;;;;;;;;;;;;;;7.07;74.45;98553.19;5090087;28;19932;-69
2020/12/07 07:36:20;;;;;;;;;;;;;;;7.07;74.21;98550.50;5097130;28;19924;-70
2020/12/07 07:38:46;;;;;;;;;;;;;;;7.06;74.46;98555.09;5082220;28;20026;-70
2020/12/07 07:41:21;;;;;;;;;;;;;;;7.04;74.46;98556.38;5082305;28;19967;-70
2020/12/07 07:43:47;;;;;;;;;;;;;;;7.07;74.09;98559.44;5093266;28;19928;-70
2020/12/07 07:46:13;;;;;;;;;;;;;;;7.07;73.73;98564.03;5087697;28;19932;-70
2020/12/07 07:48:55;;;;;;;;;;;;;;;7.04;73.69;98578.03;5066460;28;19931;-70
2020/12/07 08:17:50;;;;;;;;;;;;;;;6.45;70.34;98649.31;5079151;28;19993;-70
2020/12/07 08:20:18;;;;;;;;;;;;;;;6.38;70.83;98643.97;5096306;28;20446;-70
2020/12/07 08:22:55;;;;;;;;;;;;;;;6.38;71.02;98657.50;5095257;28;19978;-70
2020/12/07 08:25:38;;;;;;;;;;;;;;;6.35;69.58;98672.31;5094596;28;19947;-70
2020/12/07 08:28:14;;;;;;;;;;;;;;;6.30;69.08;98669.44;5091811;28;20116;-70
2020/12/07 08:30:40;;;;;;;;;;;;;;;6.18;68.88;98679.41;5075449;28;20369;-70
2020/12/07 08:33:10;;;;;;;;;;;;;;;6.07;68.49;98679.31;5076550;28;19954;-70
2020/12/07 08:35:37;;;;;;;;;;;;;;;5.97;68.22;98675.25;5078161;28;19931;-70
2020/12/07 08:38:04;;;;;;;;;;;;;;;5.99;68.15;98681.25;5093774;28;19924;-70
2020/12/07 08:40:30;;;;;;;;;;;;;;;5.96;68.05;98679.00;5094946;28;19930;-70
2020/12/07 08:42:58;;;;;;;;;;;;;;;5.88;68.24;98681.97;5093604;28;20423;-70
2020/12/07 08:45:24;;;;;;;;;;;;;;;5.79;67.81;98683.31;5090107;28;19925;-70
2020/12/07 08:47:50;;;;;;;;;;;;;;;5.78;68.25;98681.66;5085515;28;20389;-70
2020/12/07 08:50:16;;;;;;;;;;;;;;;5.79;68.09;98691.41;5078043;28;19964;-70
2020/12/07 08:52:43;;;;;;;;;;;;;;;5.81;67.96;98702.84;5078783;28;19931;-70
2020/12/07 08:55:09;;;;;;;;;;;;;;;5.83;68.19;98689.94;5061395;28;19932;-70
2020/12/07 08:57:35;;;;;;;;;;;;;;;5.88;67.23;98686.56;5087257;28;19964;-70
2020/12/07 09:00:02;;;;;;;;;;;;;;;5.90;67.90;98706.91;5051243;28;19928;-70
2020/12/07 09:02:29;;;;;;;;;;;;;;;5.89;67.11;98721.47;5056143;28;19928;-70
2020/12/07 09:04:55;;;;;;;;;;;;;;;5.91;66.73;98729.38;5056099;28;19959;-70
2020/12/07 09:07:22;;;;;;;;;;;;;;;5.90;67.26;98733.94;5054380;28;19924;-70
2020/12/07 09:09:49;;;;;;;;;;;;;;;5.90;67.47;98733.13;5071151;28;19986;-70
2020/12/07 09:12:15;;;;;;;;;;;;;;;5.89;67.08;98732.28;5054309;28;19930;-70
2020/12/07 09:14:41;;;;;;;;;;;;;;;5.91;67.02;98735.59;5054115;28;19981;-70
2020/12/07 09:17:07;;;;;;;;;;;;;;;5.92;67.22;98750.78;5081077;28;19928;-70
2020/12/07 09:19:37;;;;;;;;;;;;;;;5.97;67.37;98745.53;5117708;22;19925;-69
2020/12/07 09:22:03;;;;;;;;;;;;;;;5.99;66.64;98737.19;5076832;28;19971;-69
2020/12/07 09:24:29;;;;;;;;;;;;;;;5.97;67.16;98744.72;5054853;28;20023;-69
2020/12/07 09:26:56;;;;;;;;;;;;;;;6.00;66.93;98753.19;5053342;28;19925;-69
2020/12/07 09:29:22;;;;;;;;;;;;;;;5.84;66.96;98759.16;5052390;28;19936;-69
2020/12/07 09:31:48;;;;;;;;;;;;;;;5.87;67.32;98766.84;5069200;28;19956;-69
2020/12/07 09:34:14;;;;;;;;;;;;;;;5.94;67.25;98759.50;5036003;28;19925;-69
2020/12/07 09:36:41;;;;;;;;;;;;;;;6.00;67.04;98755.91;5053214;28;19967;-69
2020/12/07 09:39:07;;;;;;;;;;;;;;;5.98;66.32;98752.59;5034353;28;20321;-69
2020/12/07 09:41:34;;;;;;;;;;;;;;;5.98;66.28;98752.59;5052334;28;19932;-69
2020/12/07 09:44:00;;;;;;;;;;;;;;;6.13;66.15;98771.19;5052827;28;19957;-69
2020/12/07 09:46:26;;;;;;;;;;;;;;;6.25;66.10;98757.72;5032107;28;20029;-69
2020/12/07 09:48:52;;;;;;;;;;;;;;;6.39;65.99;98753.84;5052988;28;20536;-69
2020/12/07 09:51:18;;;;;;;;;;;;;;;6.25;65.47;98757.72;5052080;28;19925;-69
2020/12/07 09:53:45;;;;;;;;;;;;;;;6.30;66.22;98752.47;5051917;28;20406;-69
2020/12/07 09:56:11;;;;;;;;;;;;;;;6.14;66.20;98762.03;5048660;28;19928;-69
2020/12/07 09:58:38;;;;;;;;;;;;;;;6.10;66.21;98765.41;5034858;28;19978;-69
2020/12/07 10:01:05;;;;;;;;;;;;;;;6.16;66.22;98764.50;5052206;28;19947;-69
2020/12/07 10:03:31;;;;;;;;;;;;;;;6.24;65.91;98766.91;5053093;28;19925;-70
2020/12/07 10:05:57;;;;;;;;;;;;;;;6.29;66.11;98764.34;5051423;28;20390;-69
2020/12/07 10:08:24;;;;;;;;;;;;;;;6.37;66.00;98755.94;5052725;28;19994;-69
2020/12/07 10:10:50;;;;;;;;;;;;;;;6.29;65.96;98758.94;5034990;28;19931;-69
2020/12/07 10:13:25;;;;;;;;;;;;;;;6.17;65.96;98774.28;5016128;28;19955;-69
2020/12/07 10:15:52;;;;;;;;;;;;;;;6.15;66.55;98774.50;5040405;28;19925;-69
2020/12/07 10:18:18;;;;;;;;;;;;;;;6.26;66.29;98786.44;5031403;28;20326;-69
2020/12/07 10:20:46;;;;;;;;;;;;;;;6.29;65.98;98784.13;5035707;28;20002;-69
2020/12/07 10:23:12;;;;;;;;;;;;;;;6.36;65.64;98789.47;5051380;28;19964;-69
2020/12/07 10:25:39;;;;;;;;;;;;;;;6.32;66.07;98780.13;5050688;28;20023;-69
2020/12/07 10:28:05;;;;;;;;;;;;;;;6.46;65.28;98776.25;5050447;28;20052;-69
2020/12/07 10:30:31;;;;;;;;;;;;;;;6.46;65.78;98787.09;5052752;28;20015;-69
2020/12/07 10:32:57;;;;;;;;;;;;;;;6.60;65.53;98783.16;5034101;28;20209;-70
2020/12/07 10:35:23;;;;;;;;;;;;;;;6.71;64.92;98795.13;5015625;28;19931;-70
2020/12/07 10:38:02;;;;;;;;;;;;;;;6.82;64.63;98793.53;5029793;28;20027;-69
2020/12/07 10:40:28;;;;;;;;;;;;;;;6.81;64.17;98800.00;5034682;28;19931;-70
2020/12/07 10:42:54;;;;;;;;;;;;;;;6.84;64.47;98796.84;5067988;28;19932;-69
2020/12/07 10:45:21;;;;;;;;;;;;;;;6.82;64.71;98798.97;5031887;28;19936;-70
2020/12/07 10:47:48;;;;;;;;;;;;;;;6.79;64.50;98799.41;5056068;28;19935;-69
2020/12/07 10:50:14;;;;;;;;;;;;;;;6.64;64.67;98800.59;5051380;28;19928;-69
2020/12/07 10:52:41;;;;;;;;;;;;;;;6.83;64.60;98800.63;5034709;28;20416;-70
2020/12/07 10:55:07;;;;;;;;;;;;;;;7.42;62.74;98796.28;5048727;28;19956;-69
2020/12/07 10:57:33;;;;;;;;;;;;;;;7.85;61.56;98788.72;5051353;28;19951;-70
2020/12/07 10:59:59;;;;;;;;;;;;;;;8.27;59.80;98807.66;5052574;28;19963;-69
2020/12/07 11:02:28;;;;;;;;;;;;;;;8.89;58.12;98807.97;5050894;28;19929;-70
2020/12/07 11:04:55;;;;;;;;;;;;;;;10.69;53.54;98801.63;5034712;28;20039;-70
2020/12/07 11:07:23;;;;;;;;;;;;;;;11.19;50.38;98801.44;5051153;28;19924;-70
2020/12/07 11:09:49;;;;;;;;;;;;;;;10.70;50.94;98815.00;5035103;28;19967;-70
2020/12/07 11:12:19;;;;;;;;;;;;;;;10.63;51.26;98814.34;5051442;28;20034;-70
2020/12/07 11:14:46;;;;;;;;;;;;;;;10.39;52.20;98819.16;5051383;28;19974;-70
2020/12/07 11:17:12;;;;;;;;;;;;;;;9.58;54.27;98816.94;5061272;28;20390;-70
2020/12/07 11:19:42;;;;;;;;;;;;;;;10.35;52.45;98812.56;5052297;28;20471;-70
2020/12/07 11:22:09;;;;;;;;;;;;;;;11.00;50.09;98802.84;5034997;28;19924;-70
2020/12/07 11:24:35;;;;;;;;;;;;;;;11.24;49.56;98809.66;5067918;28;19925;-70
2020/12/07 11:27:05;;;;;;;;;;;;;;;11.09;49.43;98804.03;5050637;28;19952;-70
2020/12/07 11:29:32;;;;;;;;;;;;;;;10.21;51.81;98810.41;5034681;28;19951;-69
2020/12/07 11:31:58;;;;;;;;;;;;;;;9.67;53.79;98801.88;5051053;28;19925;-70
2020/12/07 11:34:25;;;;;;;;;;;;;;;9.28;54.98;98809.84;5051192;28;20015;-69
2020/12/07 11:36:51;;;;;;;;;;;;;;;9.48;54.70;98792.25;5031121;28;19968;-70
2020/12/07 11:39:43;;;;;;;;;;;;;;;10.99;50.85;98791.13;5043597;28;19964;-70
2020/12/07 11:42:56;;;;;;;;;;;;;;;13.05;44.91;98791.50;5055430;28;19955;-70
2020/12/07 11:44:59;;;;;;;;;;;;;;;13.76;42.86;98797.19;5055327;28;19931;-70
2020/12/07 11:47:25;;;;;;;;;;;;;;;13.14;43.63;98806.31;5056587;28;19975;-70
2020/12/07 11:49:51;;;;;;;;;;;;;;;13.74;42.67;98800.19;5038106;28;20019;-70
2020/12/07 11:52:17;;;;;;;;;;;;;;;13.54;42.70;98804.78;5056667;28;20477;-71
2020/12/07 11:54:44;;;;;;;;;;;;;;;13.86;41.88;98788.97;5039486;28;19929;-72
2020/12/07 11:57:10;;;;;;;;;;;;;;;11.95;46.55;98799.50;5054471;28;20015;-68
2020/12/07 11:59:36;;;;;;;;;;;;;;;9.89;52.06;98810.97;5055975;28;19925;-67
2020/12/07 12:02:06;;;;;;;;;;;;;;;8.98;55.55;98803.81;5055068;28;19971;-68
2020/12/07 12:04:32;;;;;;;;;;;;;;;8.53;57.52;98812.63;5038387;28;19925;-68
2020/12/07 12:06:58;;;;;;;;;;;;;;;8.49;58.05;98805.19;5053954;28;19967;-67
2020/12/07 12:09:24;;;;;;;;;;;;;;;8.44;58.12;98805.88;5054351;28;20390;-68
2020/12/07 12:11:58;;;;;;;;;;;;;;;8.35;58.35;98802.69;5055176;28;20406;-68
2020/12/07 12:14:25;;;;;;;;;;;;;;;8.30;58.83;98804.47;5055421;28;19925;-68
2020/12/07 12:16:53;;;;;;;;;;;;;;;8.33;59.06;98804.00;5046554;28;20395;-68
2020/12/07 12:19:19;;;;;;;;;;;;;;;10.72;52.41;98796.50;5037421;28;19956;-68
2020/12/07 12:21:45;;;;;;;;;;;;;;;10.49;51.89;98801.31;5037888;28;19948;-68
2020/12/07 12:24:12;;;;;;;;;;;;;;;10.40;52.64;98800.91;5053836;28;19959;-68
2020/12/07 12:26:40;;;;;;;;;;;;;;;12.14;47.46;98796.38;5053013;28;20398;-68
2020/12/07 12:29:06;;;;;;;;;;;;;;;12.33;46.11;98794.91;5032900;28;19925;-68
2020/12/07 12:31:33;;;;;;;;;;;;;;;12.44;45.40;98802.09;5054147;28;19925;-67
2020/12/07 12:33:59;;;;;;;;;;;;;;;11.75;47.36;98802.88;5053276;28;19960;-68
2020/12/07 12:36:26;;;;;;;;;;;;;;;9.61;52.71;98821.88;5053714;28;20031;-68
2020/12/07 12:38:53;;;;;;;;;;;;;;;8.10;57.73;98820.25;5036502;28;20011;-68
2020/12/07 12:41:19;;;;;;;;;;;;;;;7.58;59.78;98831.72;5036787;28;19929;-67
2020/12/07 12:43:46;;;;;;;;;;;;;;;8.12;58.79;98834.41;5052886;28;19947;-68
2020/12/07 12:46:13;;;;;;;;;;;;;;;7.81;59.70;98838.25;5051272;28;20011;-68
2020/12/07 12:48:40;;;;;;;;;;;;;;;7.38;61.46;98842.81;5052913;28;20027;-70
2020/12/07 12:51:07;;;;;;;;;;;;;;;7.16;62.14;98847.06;5033415;28;20390;-69
2020/12/07 12:53:34;;;;;;;;;;;;;;;7.14;62.62;98851.88;5054052;28;20383;-69
2020/12/07 12:56:00;;;;;;;;;;;;;;;7.01;62.76;98850.16;5053115;28;19970;-70
2020/12/07 12:58:26;;;;;;;;;;;;;;;7.17;62.98;98848.72;5038228;28;19925;-70
2020/12/07 13:00:52;;;;;;;;;;;;;;;7.18;62.60;98853.09;5054354;28;19924;-69
2020/12/07 13:03:19;;;;;;;;;;;;;;;7.16;63.23;98862.50;5038061;28;20388;-70
2020/12/07 13:05:46;;;;;;;;;;;;;;;7.15;62.93;98869.81;5055383;28;19943;-69
2020/12/07 13:08:12;;;;;;;;;;;;;;;7.18;62.23;98872.06;5037690;28;19928;-70
2020/12/07 13:10:39;;;;;;;;;;;;;;;7.10;62.55;98880.47;5037031;28;19932;-69
2020/12/07 13:13:05;;;;;;;;;;;;;;;6.99;63.27;98884.75;5037492;28;20023;-71
2020/12/07 13:15:32;;;;;;;;;;;;;;;6.98;63.07;98888.53;5050835;28;19925;-69
2020/12/07 13:18:07;;;;;;;;;;;;;;;7.01;63.31;98898.91;5038036;28;20345;-70
2020/12/07 13:20:38;;;;;;;;;;;;;;;6.89;63.43;98891.78;5038016;28;19983;-70
2020/12/07 13:23:34;;;;;;;;;;;;;;;6.83;63.33;98901.63;5037391;28;19924;-70
2020/12/07 13:26:12;;;;;;;;;;;;;;;6.78;63.25;98898.75;5022948;28;20036;-70